sensor_id;sensor_type;location;lat;lon;timestamp;P1;durP1;ratioP1;P2;durP2;ratioP2
19253;SDS011;9761;50.926;5.330;2022-10-16T00:01:13;1.43;;;1.10;;
19253;SDS011;9761;50.926;5.330;2022-10-16T00:03:47;4.30;;;1.20;;
19253;SDS011;9761;50.926;5.330;2022-10-16T00:06:16;1.20;;;1.10;;
19253;SDS011;9761;50.926;5.330;2022-10-16T00:08:45;3.33;;;1.00;;
19253;SDS011;9761;50.926;5.330;2022-10-16T00:11:14;1.03;;;0.90;;
19253;SDS011;9761;50.926;5.330;2022-10-16T00:13:44;1.13;;;1.00;;
19253;SDS011;9761;50.926;5.330;2022-10-16T00:16:13;5.97;;;1.10;;
19253;SDS011;9761;50.926;5.330;2022-10-16T00:18:40;4.10;;;1.10;;
19253;SDS011;9761;50.926;5.330;2022-10-16T00:21:10;3.30;;;1.30;;
19253;SDS011;9761;50.926;5.330;2022-10-16T00:23:39;1.67;;;1.37;;
19253;SDS011;9761;50.926;5.330;2022-10-16T00:26:13;4.83;;;1.27;;
19253;SDS011;9761;50.926;5.330;2022-10-16T00:28:42;3.43;;;1.10;;
19253;SDS011;9761;50.926;5.330;2022-10-16T00:31:11;3.33;;;1.10;;
19253;SDS011;9761;50.926;5.330;2022-10-16T00:33:39;2.20;;;0.93;;
19253;SDS011;9761;50.926;5.330;2022-10-16T00:36:07;2.87;;;1.10;;
19253;SDS011;9761;50.926;5.330;2022-10-16T00:38:38;2.17;;;1.00;;
19253;SDS011;9761;50.926;5.330;2022-10-16T00:41:07;2.60;;;1.20;;
19253;SDS011;9761;50.926;5.330;2022-10-16T00:43:39;1.97;;;1.00;;
19253;SDS011;9761;50.926;5.330;2022-10-16T00:46:10;1.83;;;1.00;;
19253;SDS011;9761;50.926;5.330;2022-10-16T00:48:45;1.67;;;0.87;;
19253;SDS011;9761;50.926;5.330;2022-10-16T00:51:21;2.37;;;1.00;;
19253;SDS011;9761;50.926;5.330;2022-10-16T00:53:52;1.27;;;1.00;;
19253;SDS011;9761;50.926;5.330;2022-10-16T00:56:20;1.10;;;0.80;;
19253;SDS011;9761;50.926;5.330;2022-10-16T00:58:49;0.80;;;0.77;;
19253;SDS011;9761;50.926;5.330;2022-10-16T01:01:18;1.50;;;0.93;;
19253;SDS011;9761;50.926;5.330;2022-10-16T01:03:45;2.53;;;1.10;;
19253;SDS011;9761;50.926;5.330;2022-10-16T01:06:17;1.60;;;0.80;;
19253;SDS011;9761;50.926;5.330;2022-10-16T01:09:08;4.47;;;0.97;;
19253;SDS011;9761;50.926;5.330;2022-10-16T01:11:44;1.17;;;0.87;;
19253;SDS011;9761;50.926;5.330;2022-10-16T01:14:22;4.17;;;1.07;;
19253;SDS011;9761;50.926;5.330;2022-10-16T01:16:57;3.90;;;0.90;;
19253;SDS011;9761;50.926;5.330;2022-10-16T01:19:37;1.63;;;1.20;;
19253;SDS011;9761;50.926;5.330;2022-10-16T01:22:15;1.87;;;0.90;;
19253;SDS011;9761;50.926;5.330;2022-10-16T01:24:45;2.70;;;1.43;;
19253;SDS011;9761;50.926;5.330;2022-10-16T01:27:18;1.00;;;0.70;;
19253;SDS011;9761;50.926;5.330;2022-10-16T01:29:51;1.93;;;1.00;;
19253;SDS011;9761;50.926;5.330;2022-10-16T01:32:23;1.63;;;1.30;;
19253;SDS011;9761;50.926;5.330;2022-10-16T01:34:56;4.03;;;1.00;;
19253;SDS011;9761;50.926;5.330;2022-10-16T01:37:32;1.27;;;0.87;;
19253;SDS011;9761;50.926;5.330;2022-10-16T01:40:04;1.00;;;0.90;;
19253;SDS011;9761;50.926;5.330;2022-10-16T01:42:36;4.00;;;1.20;;
19253;SDS011;9761;50.926;5.330;2022-10-16T01:45:07;2.93;;;1.00;;
19253;SDS011;9761;50.926;5.330;2022-10-16T01:47:38;2.60;;;1.43;;
19253;SDS011;9761;50.926;5.330;2022-10-16T01:50:06;1.43;;;1.03;;
19253;SDS011;9761;50.926;5.330;2022-10-16T01:52:35;1.23;;;0.90;;
19253;SDS011;9761;50.926;5.330;2022-10-16T01:55:05;1.43;;;0.93;;
19253;SDS011;9761;50.926;5.330;2022-10-16T01:57:37;3.13;;;1.10;;
19253;SDS011;9761;50.926;5.330;2022-10-16T02:00:09;3.57;;;1.10;;
19253;SDS011;9761;50.926;5.330;2022-10-16T02:02:38;3.17;;;1.20;;
19253;SDS011;9761;50.926;5.330;2022-10-16T02:05:10;4.10;;;0.90;;
19253;SDS011;9761;50.926;5.330;2022-10-16T02:07:42;1.43;;;0.90;;
19253;SDS011;9761;50.926;5.330;2022-10-16T02:10:11;2.87;;;1.47;;
19253;SDS011;9761;50.926;5.330;2022-10-16T02:12:44;2.40;;;1.00;;
19253;SDS011;9761;50.926;5.330;2022-10-16T02:15:17;5.20;;;1.20;;
19253;SDS011;9761;50.926;5.330;2022-10-16T02:17:44;1.73;;;0.87;;
19253;SDS011;9761;50.926;5.330;2022-10-16T02:20:11;0.97;;;0.87;;
19253;SDS011;9761;50.926;5.330;2022-10-16T02:22:39;3.80;;;1.10;;
19253;SDS011;9761;50.926;5.330;2022-10-16T02:25:10;1.50;;;1.00;;
19253;SDS011;9761;50.926;5.330;2022-10-16T02:27:47;1.30;;;1.00;;
19253;SDS011;9761;50.926;5.330;2022-10-16T02:30:21;1.63;;;1.30;;
19253;SDS011;9761;50.926;5.330;2022-10-16T02:32:53;2.10;;;1.17;;
19253;SDS011;9761;50.926;5.330;2022-10-16T02:35:22;3.00;;;1.17;;
19253;SDS011;9761;50.926;5.330;2022-10-16T02:37:50;2.70;;;1.10;;
19253;SDS011;9761;50.926;5.330;2022-10-16T02:40:18;1.77;;;1.20;;
19253;SDS011;9761;50.926;5.330;2022-10-16T02:42:49;2.93;;;1.30;;
19253;SDS011;9761;50.926;5.330;2022-10-16T02:45:18;3.53;;;1.00;;
19253;SDS011;9761;50.926;5.330;2022-10-16T02:47:45;1.37;;;1.27;;
19253;SDS011;9761;50.926;5.330;2022-10-16T02:50:13;2.27;;;0.97;;
19253;SDS011;9761;50.926;5.330;2022-10-16T02:52:41;3.00;;;1.00;;
19253;SDS011;9761;50.926;5.330;2022-10-16T02:55:08;0.90;;;0.70;;
19253;SDS011;9761;50.926;5.330;2022-10-16T02:57:35;2.60;;;1.00;;
19253;SDS011;9761;50.926;5.330;2022-10-16T03:00:05;1.83;;;1.00;;
19253;SDS011;9761;50.926;5.330;2022-10-16T03:02:35;1.10;;;1.00;;
19253;SDS011;9761;50.926;5.330;2022-10-16T03:05:06;1.37;;;0.93;;
19253;SDS011;9761;50.926;5.330;2022-10-16T03:07:34;1.40;;;1.17;;
19253;SDS011;9761;50.926;5.330;2022-10-16T03:10:01;2.43;;;1.30;;
19253;SDS011;9761;50.926;5.330;2022-10-16T03:12:28;2.70;;;1.50;;
19253;SDS011;9761;50.926;5.330;2022-10-16T03:14:55;1.70;;;1.17;;
19253;SDS011;9761;50.926;5.330;2022-10-16T03:17:24;2.17;;;1.13;;
19253;SDS011;9761;50.926;5.330;2022-10-16T03:19:51;1.67;;;1.10;;
19253;SDS011;9761;50.926;5.330;2022-10-16T03:22:19;3.10;;;1.23;;
19253;SDS011;9761;50.926;5.330;2022-10-16T03:24:46;2.20;;;0.97;;
19253;SDS011;9761;50.926;5.330;2022-10-16T03:27:13;1.57;;;1.27;;
19253;SDS011;9761;50.926;5.330;2022-10-16T03:29:40;1.40;;;1.30;;
19253;SDS011;9761;50.926;5.330;2022-10-16T03:32:08;4.53;;;1.50;;
19253;SDS011;9761;50.926;5.330;2022-10-16T03:34:36;5.50;;;1.33;;
19253;SDS011;9761;50.926;5.330;2022-10-16T03:37:03;2.93;;;1.20;;
19253;SDS011;9761;50.926;5.330;2022-10-16T03:39:31;2.57;;;1.03;;
19253;SDS011;9761;50.926;5.330;2022-10-16T03:41:58;3.07;;;1.30;;
19253;SDS011;9761;50.926;5.330;2022-10-16T03:44:25;1.93;;;1.20;;
19253;SDS011;9761;50.926;5.330;2022-10-16T03:46:52;2.27;;;1.10;;
19253;SDS011;9761;50.926;5.330;2022-10-16T03:49:19;4.87;;;1.27;;
19253;SDS011;9761;50.926;5.330;2022-10-16T03:51:47;3.00;;;1.23;;
19253;SDS011;9761;50.926;5.330;2022-10-16T03:54:14;1.60;;;1.20;;
19253;SDS011;9761;50.926;5.330;2022-10-16T03:56:41;5.30;;;1.20;;
19253;SDS011;9761;50.926;5.330;2022-10-16T03:59:07;1.93;;;1.20;;
19253;SDS011;9761;50.926;5.330;2022-10-16T04:01:34;1.73;;;1.60;;
19253;SDS011;9761;50.926;5.330;2022-10-16T04:04:02;2.83;;;1.47;;
19253;SDS011;9761;50.926;5.330;2022-10-16T04:06:29;1.93;;;1.30;;
19253;SDS011;9761;50.926;5.330;2022-10-16T04:08:58;4.27;;;1.50;;
19253;SDS011;9761;50.926;5.330;2022-10-16T04:11:27;3.70;;;1.53;;
19253;SDS011;9761;50.926;5.330;2022-10-16T04:13:55;3.87;;;1.50;;
19253;SDS011;9761;50.926;5.330;2022-10-16T04:16:22;2.20;;;1.57;;
19253;SDS011;9761;50.926;5.330;2022-10-16T04:18:49;3.67;;;1.83;;
19253;SDS011;9761;50.926;5.330;2022-10-16T04:21:15;1.80;;;1.53;;
19253;SDS011;9761;50.926;5.330;2022-10-16T04:23:45;1.40;;;1.30;;
19253;SDS011;9761;50.926;5.330;2022-10-16T04:26:14;3.13;;;1.60;;
19253;SDS011;9761;50.926;5.330;2022-10-16T04:28:42;4.40;;;1.73;;
19253;SDS011;9761;50.926;5.330;2022-10-16T04:31:11;5.43;;;1.93;;
19253;SDS011;9761;50.926;5.330;2022-10-16T04:33:38;3.13;;;1.63;;
19253;SDS011;9761;50.926;5.330;2022-10-16T04:36:09;2.07;;;1.57;;
19253;SDS011;9761;50.926;5.330;2022-10-16T04:38:36;2.87;;;1.67;;
19253;SDS011;9761;50.926;5.330;2022-10-16T04:41:04;1.70;;;1.60;;
19253;SDS011;9761;50.926;5.330;2022-10-16T04:43:33;1.80;;;1.60;;
19253;SDS011;9761;50.926;5.330;2022-10-16T04:46:00;3.63;;;2.20;;
19253;SDS011;9761;50.926;5.330;2022-10-16T04:48:29;2.53;;;1.90;;
19253;SDS011;9761;50.926;5.330;2022-10-16T04:50:56;3.47;;;1.90;;
19253;SDS011;9761;50.926;5.330;2022-10-16T04:53:23;3.57;;;2.00;;
19253;SDS011;9761;50.926;5.330;2022-10-16T04:55:51;2.27;;;1.97;;
19253;SDS011;9761;50.926;5.330;2022-10-16T04:58:18;4.97;;;2.00;;
19253;SDS011;9761;50.926;5.330;2022-10-16T05:00:46;3.57;;;2.00;;
19253;SDS011;9761;50.926;5.330;2022-10-16T05:03:14;3.07;;;2.10;;
19253;SDS011;9761;50.926;5.330;2022-10-16T05:05:42;3.93;;;2.20;;
19253;SDS011;9761;50.926;5.330;2022-10-16T05:08:13;2.30;;;2.10;;
19253;SDS011;9761;50.926;5.330;2022-10-16T05:10:41;2.60;;;2.20;;
19253;SDS011;9761;50.926;5.330;2022-10-16T05:13:09;4.17;;;2.17;;
19253;SDS011;9761;50.926;5.330;2022-10-16T05:15:37;4.43;;;2.43;;
19253;SDS011;9761;50.926;5.330;2022-10-16T05:18:05;7.67;;;2.40;;
19253;SDS011;9761;50.926;5.330;2022-10-16T05:20:32;3.50;;;2.53;;
19253;SDS011;9761;50.926;5.330;2022-10-16T05:22:59;2.97;;;2.43;;
19253;SDS011;9761;50.926;5.330;2022-10-16T05:25:26;2.67;;;2.47;;
19253;SDS011;9761;50.926;5.330;2022-10-16T05:27:53;2.43;;;2.20;;
19253;SDS011;9761;50.926;5.330;2022-10-16T05:30:20;4.43;;;2.60;;
19253;SDS011;9761;50.926;5.330;2022-10-16T05:32:48;5.10;;;2.63;;
19253;SDS011;9761;50.926;5.330;2022-10-16T05:35:17;4.07;;;2.47;;
19253;SDS011;9761;50.926;5.330;2022-10-16T05:37:45;4.43;;;2.90;;
19253;SDS011;9761;50.926;5.330;2022-10-16T05:40:12;5.93;;;2.67;;
19253;SDS011;9761;50.926;5.330;2022-10-16T05:42:42;8.63;;;2.43;;
19253;SDS011;9761;50.926;5.330;2022-10-16T05:45:10;4.57;;;3.10;;
19253;SDS011;9761;50.926;5.330;2022-10-16T05:47:37;2.67;;;2.40;;
19253;SDS011;9761;50.926;5.330;2022-10-16T05:50:05;3.17;;;2.20;;
19253;SDS011;9761;50.926;5.330;2022-10-16T05:52:35;5.00;;;2.47;;
19253;SDS011;9761;50.926;5.330;2022-10-16T05:55:02;2.57;;;2.23;;
19253;SDS011;9761;50.926;5.330;2022-10-16T05:57:30;4.07;;;2.83;;
19253;SDS011;9761;50.926;5.330;2022-10-16T05:59:57;4.80;;;2.67;;
19253;SDS011;9761;50.926;5.330;2022-10-16T06:02:24;3.60;;;2.80;;
19253;SDS011;9761;50.926;5.330;2022-10-16T06:04:51;4.30;;;2.83;;
19253;SDS011;9761;50.926;5.330;2022-10-16T06:07:19;3.73;;;2.60;;
19253;SDS011;9761;50.926;5.330;2022-10-16T06:09:49;5.10;;;2.77;;
19253;SDS011;9761;50.926;5.330;2022-10-16T06:12:16;6.03;;;2.70;;
19253;SDS011;9761;50.926;5.330;2022-10-16T06:14:44;3.20;;;2.93;;
19253;SDS011;9761;50.926;5.330;2022-10-16T06:17:12;2.87;;;2.67;;
19253;SDS011;9761;50.926;5.330;2022-10-16T06:19:41;4.77;;;2.57;;
19253;SDS011;9761;50.926;5.330;2022-10-16T06:22:08;3.47;;;2.63;;
19253;SDS011;9761;50.926;5.330;2022-10-16T06:24:37;3.73;;;2.47;;
19253;SDS011;9761;50.926;5.330;2022-10-16T06:27:05;4.83;;;3.03;;
19253;SDS011;9761;50.926;5.330;2022-10-16T06:29:33;7.10;;;2.70;;
19253;SDS011;9761;50.926;5.330;2022-10-16T06:32:00;5.70;;;2.80;;
19253;SDS011;9761;50.926;5.330;2022-10-16T06:34:26;3.13;;;2.47;;
19253;SDS011;9761;50.926;5.330;2022-10-16T06:36:55;4.97;;;2.47;;
19253;SDS011;9761;50.926;5.330;2022-10-16T06:39:22;4.07;;;2.80;;
19253;SDS011;9761;50.926;5.330;2022-10-16T06:41:48;6.27;;;2.50;;
19253;SDS011;9761;50.926;5.330;2022-10-16T06:44:17;5.47;;;2.70;;
19253;SDS011;9761;50.926;5.330;2022-10-16T06:46:44;3.53;;;3.10;;
19253;SDS011;9761;50.926;5.330;2022-10-16T06:49:11;5.00;;;2.63;;
19253;SDS011;9761;50.926;5.330;2022-10-16T06:51:40;3.00;;;2.53;;
19253;SDS011;9761;50.926;5.330;2022-10-16T06:54:08;3.20;;;2.90;;
19253;SDS011;9761;50.926;5.330;2022-10-16T06:56:35;3.17;;;2.70;;
19253;SDS011;9761;50.926;5.330;2022-10-16T06:59:02;4.07;;;3.17;;
19253;SDS011;9761;50.926;5.330;2022-10-16T07:01:31;4.63;;;3.20;;
19253;SDS011;9761;50.926;5.330;2022-10-16T07:03:59;4.27;;;2.93;;
19253;SDS011;9761;50.926;5.330;2022-10-16T07:06:27;3.13;;;2.67;;
19253;SDS011;9761;50.926;5.330;2022-10-16T07:08:58;5.40;;;2.73;;
19253;SDS011;9761;50.926;5.330;2022-10-16T07:11:29;4.60;;;2.90;;
19253;SDS011;9761;50.926;5.330;2022-10-16T07:13:57;5.93;;;2.80;;
19253;SDS011;9761;50.926;5.330;2022-10-16T07:16:24;4.40;;;2.77;;
19253;SDS011;9761;50.926;5.330;2022-10-16T07:18:54;4.27;;;2.70;;
19253;SDS011;9761;50.926;5.330;2022-10-16T07:21:25;2.80;;;2.53;;
19253;SDS011;9761;50.926;5.330;2022-10-16T07:23:54;5.03;;;2.43;;
19253;SDS011;9761;50.926;5.330;2022-10-16T07:26:22;3.57;;;2.70;;
19253;SDS011;9761;50.926;5.330;2022-10-16T07:28:50;2.73;;;2.53;;
19253;SDS011;9761;50.926;5.330;2022-10-16T07:31:18;3.20;;;2.40;;
19253;SDS011;9761;50.926;5.330;2022-10-16T07:33:47;4.03;;;2.60;;
19253;SDS011;9761;50.926;5.330;2022-10-16T07:36:17;2.93;;;2.50;;
19253;SDS011;9761;50.926;5.330;2022-10-16T07:38:45;2.10;;;1.90;;
19253;SDS011;9761;50.926;5.330;2022-10-16T07:41:13;3.83;;;2.10;;
19253;SDS011;9761;50.926;5.330;2022-10-16T07:43:45;3.17;;;2.50;;
19253;SDS011;9761;50.926;5.330;2022-10-16T07:46:12;3.13;;;2.27;;
19253;SDS011;9761;50.926;5.330;2022-10-16T07:48:40;4.37;;;2.43;;
19253;SDS011;9761;50.926;5.330;2022-10-16T07:51:10;2.33;;;2.13;;
19253;SDS011;9761;50.926;5.330;2022-10-16T07:53:40;6.27;;;2.57;;
19253;SDS011;9761;50.926;5.330;2022-10-16T07:56:07;3.50;;;1.93;;
19253;SDS011;9761;50.926;5.330;2022-10-16T07:58:34;5.30;;;2.00;;
19253;SDS011;9761;50.926;5.330;2022-10-16T08:01:03;3.43;;;1.80;;
19253;SDS011;9761;50.926;5.330;2022-10-16T08:03:34;2.77;;;1.90;;
19253;SDS011;9761;50.926;5.330;2022-10-16T08:06:02;3.93;;;1.90;;
19253;SDS011;9761;50.926;5.330;2022-10-16T08:08:30;3.17;;;1.47;;
19253;SDS011;9761;50.926;5.330;2022-10-16T08:11:01;3.20;;;1.67;;
19253;SDS011;9761;50.926;5.330;2022-10-16T08:13:29;2.07;;;1.70;;
19253;SDS011;9761;50.926;5.330;2022-10-16T08:15:56;2.37;;;1.67;;
19253;SDS011;9761;50.926;5.330;2022-10-16T08:18:23;1.43;;;1.33;;
19253;SDS011;9761;50.926;5.330;2022-10-16T08:23:36;2.07;;;1.63;;
19253;SDS011;9761;50.926;5.330;2022-10-16T08:26:06;4.60;;;1.50;;
19253;SDS011;9761;50.926;5.330;2022-10-16T08:28:35;3.13;;;1.50;;
19253;SDS011;9761;50.926;5.330;2022-10-16T08:31:06;6.47;;;1.97;;
19253;SDS011;9761;50.926;5.330;2022-10-16T08:33:35;4.33;;;1.70;;
19253;SDS011;9761;50.926;5.330;2022-10-16T08:36:03;2.70;;;1.47;;
19253;SDS011;9761;50.926;5.330;2022-10-16T08:38:31;1.20;;;1.10;;
19253;SDS011;9761;50.926;5.330;2022-10-16T08:41:01;2.53;;;1.30;;
19253;SDS011;9761;50.926;5.330;2022-10-16T08:46:37;3.40;;;1.50;;
19253;SDS011;9761;50.926;5.330;2022-10-16T08:49:12;3.40;;;1.33;;
19253;SDS011;9761;50.926;5.330;2022-10-16T08:51:40;2.83;;;1.37;;
19253;SDS011;9761;50.926;5.330;2022-10-16T08:54:12;5.13;;;1.33;;
19253;SDS011;9761;50.926;5.330;2022-10-16T08:56:50;3.00;;;1.40;;
19253;SDS011;9761;50.926;5.330;2022-10-16T08:59:18;2.93;;;1.30;;
19253;SDS011;9761;50.926;5.330;2022-10-16T09:01:46;2.63;;;1.27;;
19253;SDS011;9761;50.926;5.330;2022-10-16T09:07:17;3.13;;;1.50;;
19253;SDS011;9761;50.926;5.330;2022-10-16T09:09:53;3.63;;;1.23;;
19253;SDS011;9761;50.926;5.330;2022-10-16T09:12:32;4.63;;;1.40;;
19253;SDS011;9761;50.926;5.330;2022-10-16T09:15:10;3.90;;;1.73;;
19253;SDS011;9761;50.926;5.330;2022-10-16T09:17:45;5.53;;;1.80;;
19253;SDS011;9761;50.926;5.330;2022-10-16T09:20:23;6.30;;;1.70;;
19253;SDS011;9761;50.926;5.330;2022-10-16T09:22:56;4.20;;;1.43;;
19253;SDS011;9761;50.926;5.330;2022-10-16T09:25:37;5.57;;;1.97;;
19253;SDS011;9761;50.926;5.330;2022-10-16T09:28:09;3.23;;;1.67;;
19253;SDS011;9761;50.926;5.330;2022-10-16T09:30:38;4.00;;;1.67;;
19253;SDS011;9761;50.926;5.330;2022-10-16T09:33:05;3.23;;;1.60;;
19253;SDS011;9761;50.926;5.330;2022-10-16T09:35:35;3.00;;;1.40;;
19253;SDS011;9761;50.926;5.330;2022-10-16T09:38:06;2.57;;;1.40;;
19253;SDS011;9761;50.926;5.330;2022-10-16T09:40:35;3.10;;;1.13;;
19253;SDS011;9761;50.926;5.330;2022-10-16T09:43:06;4.77;;;1.57;;
19253;SDS011;9761;50.926;5.330;2022-10-16T09:45:54;3.30;;;1.30;;
19253;SDS011;9761;50.926;5.330;2022-10-16T09:48:22;4.90;;;1.63;;
19253;SDS011;9761;50.926;5.330;2022-10-16T09:51:00;3.47;;;1.37;;
19253;SDS011;9761;50.926;5.330;2022-10-16T09:53:40;4.67;;;1.37;;
19253;SDS011;9761;50.926;5.330;2022-10-16T09:56:09;3.87;;;1.53;;
19253;SDS011;9761;50.926;5.330;2022-10-16T09:58:42;5.23;;;1.20;;
19253;SDS011;9761;50.926;5.330;2022-10-16T10:01:18;3.10;;;1.40;;
19253;SDS011;9761;50.926;5.330;2022-10-16T10:03:46;6.23;;;1.43;;
19253;SDS011;9761;50.926;5.330;2022-10-16T10:06:16;3.67;;;1.10;;
19253;SDS011;9761;50.926;5.330;2022-10-16T10:08:56;6.43;;;1.50;;
19253;SDS011;9761;50.926;5.330;2022-10-16T10:11:40;3.77;;;1.57;;
19253;SDS011;9761;50.926;5.330;2022-10-16T10:14:16;4.50;;;1.47;;
19253;SDS011;9761;50.926;5.330;2022-10-16T10:16:50;3.33;;;1.20;;
19253;SDS011;9761;50.926;5.330;2022-10-16T10:19:19;5.03;;;1.43;;
19253;SDS011;9761;50.926;5.330;2022-10-16T10:21:47;3.97;;;1.20;;
19253;SDS011;9761;50.926;5.330;2022-10-16T10:24:17;5.83;;;1.20;;
19253;SDS011;9761;50.926;5.330;2022-10-16T10:26:50;3.23;;;1.53;;
19253;SDS011;9761;50.926;5.330;2022-10-16T10:29:26;4.07;;;1.63;;
19253;SDS011;9761;50.926;5.330;2022-10-16T10:32:07;3.10;;;1.03;;
19253;SDS011;9761;50.926;5.330;2022-10-16T10:34:45;5.07;;;1.43;;
19253;SDS011;9761;50.926;5.330;2022-10-16T10:37:27;5.03;;;1.30;;
19253;SDS011;9761;50.926;5.330;2022-10-16T10:40:06;2.30;;;1.17;;
19253;SDS011;9761;50.926;5.330;2022-10-16T10:42:44;4.70;;;1.30;;
19253;SDS011;9761;50.926;5.330;2022-10-16T10:45:22;3.70;;;1.40;;
19253;SDS011;9761;50.926;5.330;2022-10-16T10:47:59;3.83;;;1.40;;
19253;SDS011;9761;50.926;5.330;2022-10-16T10:50:41;1.50;;;0.77;;
19253;SDS011;9761;50.926;5.330;2022-10-16T10:53:18;3.17;;;1.40;;
19253;SDS011;9761;50.926;5.330;2022-10-16T10:55:57;3.90;;;1.20;;
19253;SDS011;9761;50.926;5.330;2022-10-16T10:58:49;3.37;;;1.30;;
19253;SDS011;9761;50.926;5.330;2022-10-16T11:01:30;3.70;;;1.30;;
19253;SDS011;9761;50.926;5.330;2022-10-16T11:04:15;3.20;;;1.37;;
19253;SDS011;9761;50.926;5.330;2022-10-16T11:07:04;2.40;;;1.23;;
19253;SDS011;9761;50.926;5.330;2022-10-16T11:09:36;3.43;;;1.13;;
19253;SDS011;9761;50.926;5.330;2022-10-16T11:12:06;4.43;;;1.67;;
19253;SDS011;9761;50.926;5.330;2022-10-16T11:14:40;4.00;;;1.20;;
19253;SDS011;9761;50.926;5.330;2022-10-16T11:17:13;4.70;;;1.23;;
19253;SDS011;9761;50.926;5.330;2022-10-16T11:19:45;3.10;;;1.13;;
19253;SDS011;9761;50.926;5.330;2022-10-16T11:22:20;3.47;;;1.20;;
19253;SDS011;9761;50.926;5.330;2022-10-16T11:24:51;2.27;;;1.00;;
19253;SDS011;9761;50.926;5.330;2022-10-16T11:27:30;3.83;;;1.40;;
19253;SDS011;9761;50.926;5.330;2022-10-16T11:30:04;3.00;;;1.20;;
19253;SDS011;9761;50.926;5.330;2022-10-16T11:32:42;2.73;;;1.27;;
19253;SDS011;9761;50.926;5.330;2022-10-16T11:35:21;4.17;;;1.10;;
19253;SDS011;9761;50.926;5.330;2022-10-16T11:38:01;3.80;;;1.17;;
19253;SDS011;9761;50.926;5.330;2022-10-16T11:40:37;4.33;;;0.97;;
19253;SDS011;9761;50.926;5.330;2022-10-16T11:43:15;2.23;;;1.20;;
19253;SDS011;9761;50.926;5.330;2022-10-16T11:45:51;1.67;;;1.10;;
19253;SDS011;9761;50.926;5.330;2022-10-16T11:48:24;2.30;;;1.10;;
19253;SDS011;9761;50.926;5.330;2022-10-16T11:50:58;3.20;;;1.50;;
19253;SDS011;9761;50.926;5.330;2022-10-16T11:53:37;2.90;;;1.07;;
19253;SDS011;9761;50.926;5.330;2022-10-16T11:56:12;4.70;;;1.23;;
19253;SDS011;9761;50.926;5.330;2022-10-16T11:58:43;1.63;;;0.80;;
19253;SDS011;9761;50.926;5.330;2022-10-16T12:01:21;3.30;;;1.00;;
19253;SDS011;9761;50.926;5.330;2022-10-16T12:03:56;2.13;;;1.23;;
19253;SDS011;9761;50.926;5.330;2022-10-16T12:06:33;4.67;;;1.30;;
19253;SDS011;9761;50.926;5.330;2022-10-16T12:09:03;2.63;;;1.10;;
19253;SDS011;9761;50.926;5.330;2022-10-16T12:11:32;5.70;;;3.10;;
19253;SDS011;9761;50.926;5.330;2022-10-16T12:14:06;3.50;;;1.40;;
19253;SDS011;9761;50.926;5.330;2022-10-16T12:16:51;4.03;;;1.43;;
19253;SDS011;9761;50.926;5.330;2022-10-16T12:19:22;3.60;;;0.90;;
19253;SDS011;9761;50.926;5.330;2022-10-16T12:21:52;4.53;;;1.00;;
19253;SDS011;9761;50.926;5.330;2022-10-16T12:24:27;3.67;;;1.10;;
19253;SDS011;9761;50.926;5.330;2022-10-16T12:27:00;2.40;;;1.07;;
19253;SDS011;9761;50.926;5.330;2022-10-16T12:29:32;1.70;;;0.90;;
19253;SDS011;9761;50.926;5.330;2022-10-16T12:32:02;3.00;;;1.13;;
19253;SDS011;9761;50.926;5.330;2022-10-16T12:34:34;3.33;;;0.80;;
19253;SDS011;9761;50.926;5.330;2022-10-16T12:37:14;1.77;;;0.87;;
19253;SDS011;9761;50.926;5.330;2022-10-16T12:39:47;1.97;;;1.10;;
19253;SDS011;9761;50.926;5.330;2022-10-16T12:42:23;2.87;;;1.13;;
19253;SDS011;9761;50.926;5.330;2022-10-16T12:44:58;2.37;;;1.00;;
19253;SDS011;9761;50.926;5.330;2022-10-16T12:47:35;2.47;;;1.23;;
19253;SDS011;9761;50.926;5.330;2022-10-16T12:52:52;3.20;;;1.33;;
19253;SDS011;9761;50.926;5.330;2022-10-16T12:55:21;1.53;;;0.93;;
19253;SDS011;9761;50.926;5.330;2022-10-16T12:57:56;1.53;;;0.90;;
19253;SDS011;9761;50.926;5.330;2022-10-16T13:00:36;2.73;;;0.87;;
19253;SDS011;9761;50.926;5.330;2022-10-16T13:03:28;3.13;;;0.87;;
19253;SDS011;9761;50.926;5.330;2022-10-16T13:06:08;4.30;;;1.03;;
19253;SDS011;9761;50.926;5.330;2022-10-16T13:08:53;2.03;;;1.20;;
19253;SDS011;9761;50.926;5.330;2022-10-16T13:11:43;2.37;;;0.90;;
19253;SDS011;9761;50.926;5.330;2022-10-16T13:14:35;1.60;;;1.10;;
19253;SDS011;9761;50.926;5.330;2022-10-16T13:17:24;2.93;;;1.00;;
19253;SDS011;9761;50.926;5.330;2022-10-16T13:19:58;4.50;;;1.03;;
19253;SDS011;9761;50.926;5.330;2022-10-16T13:22:34;1.97;;;1.17;;
19253;SDS011;9761;50.926;5.330;2022-10-16T13:25:13;1.90;;;1.00;;
19253;SDS011;9761;50.926;5.330;2022-10-16T13:27:50;1.50;;;1.00;;
19253;SDS011;9761;50.926;5.330;2022-10-16T13:30:21;2.03;;;1.20;;
19253;SDS011;9761;50.926;5.330;2022-10-16T13:32:59;2.57;;;0.90;;
19253;SDS011;9761;50.926;5.330;2022-10-16T13:35:28;1.07;;;0.70;;
19253;SDS011;9761;50.926;5.330;2022-10-16T13:38:04;2.80;;;1.07;;
19253;SDS011;9761;50.926;5.330;2022-10-16T13:40:34;1.70;;;1.20;;
19253;SDS011;9761;50.926;5.330;2022-10-16T13:43:02;1.77;;;0.93;;
19253;SDS011;9761;50.926;5.330;2022-10-16T13:45:29;1.30;;;0.70;;
19253;SDS011;9761;50.926;5.330;2022-10-16T13:48:03;3.43;;;1.30;;
19253;SDS011;9761;50.926;5.330;2022-10-16T13:50:31;2.10;;;0.87;;
19253;SDS011;9761;50.926;5.330;2022-10-16T13:53:04;3.27;;;1.20;;
19253;SDS011;9761;50.926;5.330;2022-10-16T13:55:31;2.00;;;1.10;;
19253;SDS011;9761;50.926;5.330;2022-10-16T13:58:07;4.03;;;1.20;;
19253;SDS011;9761;50.926;5.330;2022-10-16T14:00:38;4.33;;;0.90;;
19253;SDS011;9761;50.926;5.330;2022-10-16T14:03:07;2.47;;;0.90;;
19253;SDS011;9761;50.926;5.330;2022-10-16T14:08:11;2.13;;;1.00;;
19253;SDS011;9761;50.926;5.330;2022-10-16T14:10:40;2.03;;;1.20;;
19253;SDS011;9761;50.926;5.330;2022-10-16T14:13:07;4.77;;;1.30;;
19253;SDS011;9761;50.926;5.330;2022-10-16T14:15:45;3.57;;;1.00;;
19253;SDS011;9761;50.926;5.330;2022-10-16T14:18:16;3.80;;;1.30;;
19253;SDS011;9761;50.926;5.330;2022-10-16T14:20:48;2.13;;;0.80;;
19253;SDS011;9761;50.926;5.330;2022-10-16T14:23:20;4.00;;;1.20;;
19253;SDS011;9761;50.926;5.330;2022-10-16T14:25:52;4.40;;;1.30;;
19253;SDS011;9761;50.926;5.330;2022-10-16T14:28:20;2.00;;;0.80;;
19253;SDS011;9761;50.926;5.330;2022-10-16T14:30:49;1.77;;;1.00;;
19253;SDS011;9761;50.926;5.330;2022-10-16T14:33:22;5.53;;;1.00;;
19253;SDS011;9761;50.926;5.330;2022-10-16T14:36:01;2.57;;;0.80;;
19253;SDS011;9761;50.926;5.330;2022-10-16T14:38:30;2.77;;;0.97;;
19253;SDS011;9761;50.926;5.330;2022-10-16T14:40:59;1.97;;;0.80;;
19253;SDS011;9761;50.926;5.330;2022-10-16T14:43:30;4.00;;;1.07;;
19253;SDS011;9761;50.926;5.330;2022-10-16T14:46:00;3.27;;;0.83;;
19253;SDS011;9761;50.926;5.330;2022-10-16T14:48:30;3.50;;;0.87;;
19253;SDS011;9761;50.926;5.330;2022-10-16T14:50:57;3.17;;;0.90;;
19253;SDS011;9761;50.926;5.330;2022-10-16T14:53:24;3.47;;;1.00;;
19253;SDS011;9761;50.926;5.330;2022-10-16T14:55:52;5.63;;;1.20;;
19253;SDS011;9761;50.926;5.330;2022-10-16T14:58:21;3.73;;;1.37;;
19253;SDS011;9761;50.926;5.330;2022-10-16T15:00:50;3.43;;;1.20;;
19253;SDS011;9761;50.926;5.330;2022-10-16T15:03:17;3.00;;;1.00;;
19253;SDS011;9761;50.926;5.330;2022-10-16T15:05:44;3.07;;;1.00;;
19253;SDS011;9761;50.926;5.330;2022-10-16T15:08:11;3.73;;;1.10;;
19253;SDS011;9761;50.926;5.330;2022-10-16T15:10:39;2.27;;;1.33;;
19253;SDS011;9761;50.926;5.330;2022-10-16T15:13:09;2.57;;;1.00;;
19253;SDS011;9761;50.926;5.330;2022-10-16T15:15:41;1.93;;;1.20;;
19253;SDS011;9761;50.926;5.330;2022-10-16T15:18:10;2.47;;;0.80;;
19253;SDS011;9761;50.926;5.330;2022-10-16T15:20:39;2.20;;;1.07;;
19253;SDS011;9761;50.926;5.330;2022-10-16T15:23:10;2.60;;;0.80;;
19253;SDS011;9761;50.926;5.330;2022-10-16T15:25:42;2.00;;;1.20;;
19253;SDS011;9761;50.926;5.330;2022-10-16T15:28:11;3.43;;;1.03;;
19253;SDS011;9761;50.926;5.330;2022-10-16T15:30:40;2.13;;;0.97;;
19253;SDS011;9761;50.926;5.330;2022-10-16T15:33:11;2.43;;;1.43;;
19253;SDS011;9761;50.926;5.330;2022-10-16T15:35:39;3.67;;;1.80;;
19253;SDS011;9761;50.926;5.330;2022-10-16T15:38:08;3.83;;;1.60;;